sensor_id;sensor_type;location;lat;lon;timestamp;temperature;humidity
59973;DHT22;55298;-36.624;-64.282;2022-07-29T00:00:31;10.70;65.30
59973;DHT22;55298;-36.624;-64.282;2022-07-29T00:03:01;10.80;64.50
59973;DHT22;55298;-36.624;-64.282;2022-07-29T00:05:29;10.70;64.40
59973;DHT22;55298;-36.624;-64.282;2022-07-29T00:07:58;10.70;63.70
59973;DHT22;55298;-36.624;-64.282;2022-07-29T00:10:26;10.70;64.30
59973;DHT22;55298;-36.624;-64.282;2022-07-29T00:12:55;10.60;64.50
59973;DHT22;55298;-36.624;-64.282;2022-07-29T00:15:23;10.50;65.30
59973;DHT22;55298;-36.624;-64.282;2022-07-29T00:17:52;10.50;66.00
59973;DHT22;55298;-36.624;-64.282;2022-07-29T00:20:20;10.30;65.90
59973;DHT22;55298;-36.624;-64.282;2022-07-29T00:22:49;10.20;66.00
59973;DHT22;55298;-36.624;-64.282;2022-07-29T00:25:17;10.20;66.60
59973;DHT22;55298;-36.624;-64.282;2022-07-29T00:27:47;10.20;66.50
59973;DHT22;55298;-36.624;-64.282;2022-07-29T00:30:17;10.30;67.20
59973;DHT22;55298;-36.624;-64.282;2022-07-29T00:32:47;10.10;67.40
59973;DHT22;55298;-36.624;-64.282;2022-07-29T00:35:15;10.20;68.00
59973;DHT22;55298;-36.624;-64.282;2022-07-29T00:37:55;10.10;68.50
59973;DHT22;55298;-36.624;-64.282;2022-07-29T00:40:24;10.00;68.90
59973;DHT22;55298;-36.624;-64.282;2022-07-29T00:42:53;10.00;69.00
59973;DHT22;55298;-36.624;-64.282;2022-07-29T00:45:21;10.00;68.50
59973;DHT22;55298;-36.624;-64.282;2022-07-29T00:47:49;10.00;69.10
59973;DHT22;55298;-36.624;-64.282;2022-07-29T00:50:18;10.00;68.10
59973;DHT22;55298;-36.624;-64.282;2022-07-29T00:52:48;10.00;68.80
59973;DHT22;55298;-36.624;-64.282;2022-07-29T00:55:16;10.00;68.80
59973;DHT22;55298;-36.624;-64.282;2022-07-29T00:57:45;9.90;69.30
59973;DHT22;55298;-36.624;-64.282;2022-07-29T01:00:18;9.90;69.60
59973;DHT22;55298;-36.624;-64.282;2022-07-29T01:02:49;9.90;69.80
59973;DHT22;55298;-36.624;-64.282;2022-07-29T01:05:21;9.90;68.60
59973;DHT22;55298;-36.624;-64.282;2022-07-29T01:07:53;9.90;69.00
59973;DHT22;55298;-36.624;-64.282;2022-07-29T01:10:22;9.80;69.00
59973;DHT22;55298;-36.624;-64.282;2022-07-29T01:12:54;9.80;69.00
59973;DHT22;55298;-36.624;-64.282;2022-07-29T01:15:24;9.80;67.70
59973;DHT22;55298;-36.624;-64.282;2022-07-29T01:18:07;9.80;68.50
59973;DHT22;55298;-36.624;-64.282;2022-07-29T01:26:53;9.70;69.40
59973;DHT22;55298;-36.624;-64.282;2022-07-29T01:29:47;9.70;68.70
59973;DHT22;55298;-36.624;-64.282;2022-07-29T01:32:21;9.60;69.50
59973;DHT22;55298;-36.624;-64.282;2022-07-29T01:35:06;9.60;69.20
59973;DHT22;55298;-36.624;-64.282;2022-07-29T01:37:48;9.50;69.50
59973;DHT22;55298;-36.624;-64.282;2022-07-29T01:40:36;9.40;70.10
59973;DHT22;55298;-36.624;-64.282;2022-07-29T01:43:12;9.40;72.50
59973;DHT22;55298;-36.624;-64.282;2022-07-29T01:45:48;9.20;73.00
59973;DHT22;55298;-36.624;-64.282;2022-07-29T01:48:23;9.20;73.40
59973;DHT22;55298;-36.624;-64.282;2022-07-29T01:51:13;9.10;74.10
59973;DHT22;55298;-36.624;-64.282;2022-07-29T01:56:39;9.20;73.60
59973;DHT22;55298;-36.624;-64.282;2022-07-29T01:59:08;9.10;73.20
59973;DHT22;55298;-36.624;-64.282;2022-07-29T02:01:40;9.20;72.20
59973;DHT22;55298;-36.624;-64.282;2022-07-29T02:04:11;9.20;72.60
59973;DHT22;55298;-36.624;-64.282;2022-07-29T02:06:43;9.20;71.00
59973;DHT22;55298;-36.624;-64.282;2022-07-29T02:09:13;9.20;71.20
59973;DHT22;55298;-36.624;-64.282;2022-07-29T02:11:49;9.20;71.90
59973;DHT22;55298;-36.624;-64.282;2022-07-29T02:14:20;9.00;72.40
59973;DHT22;55298;-36.624;-64.282;2022-07-29T02:16:53;9.00;73.00
59973;DHT22;55298;-36.624;-64.282;2022-07-29T02:19:24;9.00;71.70
59973;DHT22;55298;-36.624;-64.282;2022-07-29T02:21:54;9.00;71.50
59973;DHT22;55298;-36.624;-64.282;2022-07-29T02:24:25;9.00;72.50
59973;DHT22;55298;-36.624;-64.282;2022-07-29T02:26:56;8.90;73.00
59973;DHT22;55298;-36.624;-64.282;2022-07-29T02:29:29;8.90;71.50
59973;DHT22;55298;-36.624;-64.282;2022-07-29T02:31:58;8.90;71.90
59973;DHT22;55298;-36.624;-64.282;2022-07-29T02:34:29;9.00;71.80
59973;DHT22;55298;-36.624;-64.282;2022-07-29T02:36:57;8.90;73.30
59973;DHT22;55298;-36.624;-64.282;2022-07-29T02:39:28;8.90;71.00
59973;DHT22;55298;-36.624;-64.282;2022-07-29T02:42:03;8.90;71.70
59973;DHT22;55298;-36.624;-64.282;2022-07-29T02:44:35;9.00;70.60
59973;DHT22;55298;-36.624;-64.282;2022-07-29T02:47:10;8.90;70.70
59973;DHT22;55298;-36.624;-64.282;2022-07-29T02:50:04;9.10;68.90
59973;DHT22;55298;-36.624;-64.282;2022-07-29T02:53:05;9.00;69.00
59973;DHT22;55298;-36.624;-64.282;2022-07-29T02:55:31;9.00;70.00
59973;DHT22;55298;-36.624;-64.282;2022-07-29T02:58:05;9.00;68.70
59973;DHT22;55298;-36.624;-64.282;2022-07-29T03:00:38;9.00;69.70
59973;DHT22;55298;-36.624;-64.282;2022-07-29T03:03:12;9.10;69.80
59973;DHT22;55298;-36.624;-64.282;2022-07-29T03:05:41;9.00;69.70
59973;DHT22;55298;-36.624;-64.282;2022-07-29T03:08:11;8.90;69.60
59973;DHT22;55298;-36.624;-64.282;2022-07-29T03:10:44;8.90;71.10
59973;DHT22;55298;-36.624;-64.282;2022-07-29T03:13:14;8.80;70.40
59973;DHT22;55298;-36.624;-64.282;2022-07-29T03:15:44;8.80;71.00
59973;DHT22;55298;-36.624;-64.282;2022-07-29T03:18:13;8.80;70.70
59973;DHT22;55298;-36.624;-64.282;2022-07-29T03:20:41;8.70;71.40
59973;DHT22;55298;-36.624;-64.282;2022-07-29T03:23:10;8.70;72.00
59973;DHT22;55298;-36.624;-64.282;2022-07-29T03:25:39;8.60;72.50
59973;DHT22;55298;-36.624;-64.282;2022-07-29T03:28:09;8.60;71.90
59973;DHT22;55298;-36.624;-64.282;2022-07-29T03:30:37;8.60;72.70
59973;DHT22;55298;-36.624;-64.282;2022-07-29T03:33:05;8.60;72.40
59973;DHT22;55298;-36.624;-64.282;2022-07-29T03:35:33;8.60;73.10
59973;DHT22;55298;-36.624;-64.282;2022-07-29T03:38:02;8.60;72.70
59973;DHT22;55298;-36.624;-64.282;2022-07-29T03:40:58;8.60;73.10
59973;DHT22;55298;-36.624;-64.282;2022-07-29T03:43:32;8.80;72.50
59973;DHT22;55298;-36.624;-64.282;2022-07-29T03:46:04;8.60;73.00
59973;DHT22;55298;-36.624;-64.282;2022-07-29T03:48:36;8.60;72.80
59973;DHT22;55298;-36.624;-64.282;2022-07-29T03:51:05;8.60;72.80
59973;DHT22;55298;-36.624;-64.282;2022-07-29T03:53:33;8.70;72.70
59973;DHT22;55298;-36.624;-64.282;2022-07-29T03:56:04;8.60;72.40
59973;DHT22;55298;-36.624;-64.282;2022-07-29T03:58:35;8.50;73.30
59973;DHT22;55298;-36.624;-64.282;2022-07-29T04:01:03;8.50;74.20
59973;DHT22;55298;-36.624;-64.282;2022-07-29T04:03:33;8.40;75.10
59973;DHT22;55298;-36.624;-64.282;2022-07-29T04:06:05;8.40;76.00
59973;DHT22;55298;-36.624;-64.282;2022-07-29T04:08:35;8.30;76.30
59973;DHT22;55298;-36.624;-64.282;2022-07-29T04:11:05;8.20;76.70
59973;DHT22;55298;-36.624;-64.282;2022-07-29T04:13:35;8.20;77.40
59973;DHT22;55298;-36.624;-64.282;2022-07-29T04:16:04;8.10;78.40
59973;DHT22;55298;-36.624;-64.282;2022-07-29T04:18:32;8.10;79.00
59973;DHT22;55298;-36.624;-64.282;2022-07-29T04:21:01;8.00;80.00
59973;DHT22;55298;-36.624;-64.282;2022-07-29T04:23:31;7.90;79.70
59973;DHT22;55298;-36.624;-64.282;2022-07-29T04:26:00;7.90;80.20
59973;DHT22;55298;-36.624;-64.282;2022-07-29T04:28:28;7.90;80.90
59973;DHT22;55298;-36.624;-64.282;2022-07-29T04:30:58;9.30;82.10
59973;DHT22;55298;-36.624;-64.282;2022-07-29T04:33:26;7.80;81.70
59973;DHT22;55298;-36.624;-64.282;2022-07-29T04:35:54;7.80;82.40
59973;DHT22;55298;-36.624;-64.282;2022-07-29T04:38:22;7.60;82.60
59973;DHT22;55298;-36.624;-64.282;2022-07-29T04:40:50;7.50;82.70
59973;DHT22;55298;-36.624;-64.282;2022-07-29T04:43:20;7.50;83.50
59973;DHT22;55298;-36.624;-64.282;2022-07-29T04:45:48;7.30;83.60
59973;DHT22;55298;-36.624;-64.282;2022-07-29T04:48:17;7.30;84.60
59973;DHT22;55298;-36.624;-64.282;2022-07-29T04:50:46;7.30;85.40
59973;DHT22;55298;-36.624;-64.282;2022-07-29T04:53:15;7.20;86.50
59973;DHT22;55298;-36.624;-64.282;2022-07-29T04:55:44;7.10;85.30
59973;DHT22;55298;-36.624;-64.282;2022-07-29T04:58:15;7.10;85.90
59973;DHT22;55298;-36.624;-64.282;2022-07-29T05:00:43;7.00;85.90
59973;DHT22;55298;-36.624;-64.282;2022-07-29T05:03:12;7.10;86.70
59973;DHT22;55298;-36.624;-64.282;2022-07-29T05:05:40;7.00;86.90
59973;DHT22;55298;-36.624;-64.282;2022-07-29T05:08:09;7.00;84.50
59973;DHT22;55298;-36.624;-64.282;2022-07-29T05:10:37;6.90;84.10
59973;DHT22;55298;-36.624;-64.282;2022-07-29T05:13:07;7.00;84.80
59973;DHT22;55298;-36.624;-64.282;2022-07-29T05:15:36;6.90;86.10
59973;DHT22;55298;-36.624;-64.282;2022-07-29T05:18:05;6.80;85.80
59973;DHT22;55298;-36.624;-64.282;2022-07-29T05:20:32;6.70;86.40
59973;DHT22;55298;-36.624;-64.282;2022-07-29T05:23:02;6.70;86.40
59973;DHT22;55298;-36.624;-64.282;2022-07-29T05:25:30;6.70;87.10
59973;DHT22;55298;-36.624;-64.282;2022-07-29T05:27:58;6.70;87.40
59973;DHT22;55298;-36.624;-64.282;2022-07-29T05:30:27;6.70;88.00
59973;DHT22;55298;-36.624;-64.282;2022-07-29T05:32:55;6.80;87.90
59973;DHT22;55298;-36.624;-64.282;2022-07-29T05:35:25;6.70;88.40
59973;DHT22;55298;-36.624;-64.282;2022-07-29T05:37:53;6.50;88.20
59973;DHT22;55298;-36.624;-64.282;2022-07-29T05:40:22;6.50;88.90
59973;DHT22;55298;-36.624;-64.282;2022-07-29T05:42:51;6.30;90.00
59973;DHT22;55298;-36.624;-64.282;2022-07-29T05:45:21;6.20;90.30
59973;DHT22;55298;-36.624;-64.282;2022-07-29T05:47:51;6.30;90.50
59973;DHT22;55298;-36.624;-64.282;2022-07-29T05:50:18;6.30;90.60
59973;DHT22;55298;-36.624;-64.282;2022-07-29T05:52:48;6.30;90.60
59973;DHT22;55298;-36.624;-64.282;2022-07-29T05:55:17;6.40;90.80
59973;DHT22;55298;-36.624;-64.282;2022-07-29T05:57:46;6.30;91.00
59973;DHT22;55298;-36.624;-64.282;2022-07-29T06:00:14;6.20;91.10
59973;DHT22;55298;-36.624;-64.282;2022-07-29T06:02:44;6.50;90.60
59973;DHT22;55298;-36.624;-64.282;2022-07-29T06:05:12;6.50;90.40
59973;DHT22;55298;-36.624;-64.282;2022-07-29T06:07:42;6.50;90.40
59973;DHT22;55298;-36.624;-64.282;2022-07-29T06:10:10;6.50;90.10
59973;DHT22;55298;-36.624;-64.282;2022-07-29T06:12:40;6.40;90.40
59973;DHT22;55298;-36.624;-64.282;2022-07-29T06:15:08;6.50;90.70
59973;DHT22;55298;-36.624;-64.282;2022-07-29T06:17:37;6.30;91.30
59973;DHT22;55298;-36.624;-64.282;2022-07-29T06:20:05;6.40;91.00
59973;DHT22;55298;-36.624;-64.282;2022-07-29T06:22:35;6.40;91.20
59973;DHT22;55298;-36.624;-64.282;2022-07-29T06:25:03;6.50;90.30
59973;DHT22;55298;-36.624;-64.282;2022-07-29T06:27:32;6.50;90.10
59973;DHT22;55298;-36.624;-64.282;2022-07-29T06:30:00;6.50;90.30
59973;DHT22;55298;-36.624;-64.282;2022-07-29T06:32:29;6.50;90.60
59973;DHT22;55298;-36.624;-64.282;2022-07-29T06:34:57;6.50;90.20
59973;DHT22;55298;-36.624;-64.282;2022-07-29T06:37:26;6.50;90.50
59973;DHT22;55298;-36.624;-64.282;2022-07-29T06:39:55;6.50;90.00
59973;DHT22;55298;-36.624;-64.282;2022-07-29T06:42:37;6.50;90.20
59973;DHT22;55298;-36.624;-64.282;2022-07-29T06:45:05;6.50;90.00
59973;DHT22;55298;-36.624;-64.282;2022-07-29T06:47:34;6.40;90.30
59973;DHT22;55298;-36.624;-64.282;2022-07-29T06:50:02;6.40;90.30
59973;DHT22;55298;-36.624;-64.282;2022-07-29T06:52:31;6.40;90.30
59973;DHT22;55298;-36.624;-64.282;2022-07-29T06:55:01;6.60;90.50
59973;DHT22;55298;-36.624;-64.282;2022-07-29T06:57:33;6.40;90.70
59973;DHT22;55298;-36.624;-64.282;2022-07-29T07:00:02;6.30;91.00
59973;DHT22;55298;-36.624;-64.282;2022-07-29T07:02:31;6.20;91.40
59973;DHT22;55298;-36.624;-64.282;2022-07-29T07:05:00;6.10;91.60
59973;DHT22;55298;-36.624;-64.282;2022-07-29T07:07:29;6.20;91.60
59973;DHT22;55298;-36.624;-64.282;2022-07-29T07:09:57;6.30;90.80
59973;DHT22;55298;-36.624;-64.282;2022-07-29T07:12:25;6.20;91.00
59973;DHT22;55298;-36.624;-64.282;2022-07-29T07:14:53;6.40;90.90
59973;DHT22;55298;-36.624;-64.282;2022-07-29T07:17:22;6.30;90.50
59973;DHT22;55298;-36.624;-64.282;2022-07-29T07:19:51;6.30;90.50
59973;DHT22;55298;-36.624;-64.282;2022-07-29T07:22:20;6.30;90.80
59973;DHT22;55298;-36.624;-64.282;2022-07-29T07:24:48;6.40;90.50
59973;DHT22;55298;-36.624;-64.282;2022-07-29T07:27:17;6.40;90.20
59973;DHT22;55298;-36.624;-64.282;2022-07-29T07:29:45;6.50;89.90
59973;DHT22;55298;-36.624;-64.282;2022-07-29T07:32:14;6.50;89.60
59973;DHT22;55298;-36.624;-64.282;2022-07-29T07:34:43;6.50;89.70
59973;DHT22;55298;-36.624;-64.282;2022-07-29T07:37:11;6.50;89.70
59973;DHT22;55298;-36.624;-64.282;2022-07-29T07:39:41;6.50;88.40
59973;DHT22;55298;-36.624;-64.282;2022-07-29T07:42:09;6.50;88.90
59973;DHT22;55298;-36.624;-64.282;2022-07-29T07:44:40;6.50;88.30
59973;DHT22;55298;-36.624;-64.282;2022-07-29T07:47:08;6.50;87.30
59973;DHT22;55298;-36.624;-64.282;2022-07-29T07:49:37;6.40;87.50
59973;DHT22;55298;-36.624;-64.282;2022-07-29T07:52:05;6.40;87.50
59973;DHT22;55298;-36.624;-64.282;2022-07-29T07:54:33;6.40;87.50
59973;DHT22;55298;-36.624;-64.282;2022-07-29T07:57:04;6.30;88.20
59973;DHT22;55298;-36.624;-64.282;2022-07-29T07:59:32;6.30;88.30
59973;DHT22;55298;-36.624;-64.282;2022-07-29T08:02:00;6.30;87.40
59973;DHT22;55298;-36.624;-64.282;2022-07-29T08:04:29;6.30;88.10
59973;DHT22;55298;-36.624;-64.282;2022-07-29T08:06:58;6.30;88.50
59973;DHT22;55298;-36.624;-64.282;2022-07-29T08:09:28;6.30;88.80
59973;DHT22;55298;-36.624;-64.282;2022-07-29T08:11:57;6.10;88.60
59973;DHT22;55298;-36.624;-64.282;2022-07-29T08:14:26;6.10;89.30
59973;DHT22;55298;-36.624;-64.282;2022-07-29T08:16:55;6.10;90.00
59973;DHT22;55298;-36.624;-64.282;2022-07-29T08:19:24;6.10;89.60
59973;DHT22;55298;-36.624;-64.282;2022-07-29T08:21:52;6.10;88.00
59973;DHT22;55298;-36.624;-64.282;2022-07-29T08:24:21;6.20;87.70
59973;DHT22;55298;-36.624;-64.282;2022-07-29T08:27:08;6.20;87.90
59973;DHT22;55298;-36.624;-64.282;2022-07-29T08:29:37;6.10;88.00
59973;DHT22;55298;-36.624;-64.282;2022-07-29T08:32:06;6.10;88.40
59973;DHT22;55298;-36.624;-64.282;2022-07-29T08:34:35;6.10;89.20
59973;DHT22;55298;-36.624;-64.282;2022-07-29T08:37:04;6.10;89.40
59973;DHT22;55298;-36.624;-64.282;2022-07-29T08:39:33;6.20;88.90
59973;DHT22;55298;-36.624;-64.282;2022-07-29T08:42:02;6.20;87.60
59973;DHT22;55298;-36.624;-64.282;2022-07-29T08:44:32;6.10;87.70
59973;DHT22;55298;-36.624;-64.282;2022-07-29T08:47:00;6.10;88.20
59973;DHT22;55298;-36.624;-64.282;2022-07-29T08:49:29;6.00;88.90
59973;DHT22;55298;-36.624;-64.282;2022-07-29T08:51:58;6.00;89.50
59973;DHT22;55298;-36.624;-64.282;2022-07-29T08:54:28;6.10;87.90
59973;DHT22;55298;-36.624;-64.282;2022-07-29T09:01:03;6.20;87.70
59973;DHT22;55298;-36.624;-64.282;2022-07-29T09:03:33;6.10;87.00
59973;DHT22;55298;-36.624;-64.282;2022-07-29T09:06:03;6.10;87.70
59973;DHT22;55298;-36.624;-64.282;2022-07-29T09:08:33;6.20;85.10
59973;DHT22;55298;-36.624;-64.282;2022-07-29T09:11:02;6.30;85.60
59973;DHT22;55298;-36.624;-64.282;2022-07-29T09:13:31;6.30;84.00
59973;DHT22;55298;-36.624;-64.282;2022-07-29T09:16:01;6.40;84.60
59973;DHT22;55298;-36.624;-64.282;2022-07-29T09:18:46;6.40;83.50
59973;DHT22;55298;-36.624;-64.282;2022-07-29T09:21:17;6.60;79.50
59973;DHT22;55298;-36.624;-64.282;2022-07-29T09:24:09;6.70;78.00
59973;DHT22;55298;-36.624;-64.282;2022-07-29T09:26:42;6.70;78.70
59973;DHT22;55298;-36.624;-64.282;2022-07-29T09:29:15;6.70;77.50
59973;DHT22;55298;-36.624;-64.282;2022-07-29T09:31:45;7.00;74.50
59973;DHT22;55298;-36.624;-64.282;2022-07-29T09:34:17;7.00;74.80
59973;DHT22;55298;-36.624;-64.282;2022-07-29T09:36:49;6.90;74.60
59973;DHT22;55298;-36.624;-64.282;2022-07-29T09:39:29;6.90;75.30
59973;DHT22;55298;-36.624;-64.282;2022-07-29T09:42:00;7.10;73.10
59973;DHT22;55298;-36.624;-64.282;2022-07-29T09:44:43;7.00;73.70
59973;DHT22;55298;-36.624;-64.282;2022-07-29T09:47:12;7.00;74.30
59973;DHT22;55298;-36.624;-64.282;2022-07-29T09:49:57;6.90;75.90
59973;DHT22;55298;-36.624;-64.282;2022-07-29T09:52:29;6.60;78.80
59973;DHT22;55298;-36.624;-64.282;2022-07-29T09:55:12;6.50;80.10
59973;DHT22;55298;-36.624;-64.282;2022-07-29T09:57:42;6.50;80.90
59973;DHT22;55298;-36.624;-64.282;2022-07-29T10:00:13;6.40;82.20
59973;DHT22;55298;-36.624;-64.282;2022-07-29T10:02:45;6.40;82.70
59973;DHT22;55298;-36.624;-64.282;2022-07-29T10:05:23;6.30;83.20
59973;DHT22;55298;-36.624;-64.282;2022-07-29T10:07:55;6.20;83.40
59973;DHT22;55298;-36.624;-64.282;2022-07-29T10:10:27;6.10;84.50
59973;DHT22;55298;-36.624;-64.282;2022-07-29T10:12:58;6.10;85.20
59973;DHT22;55298;-36.624;-64.282;2022-07-29T10:15:28;6.10;84.80
59973;DHT22;55298;-36.624;-64.282;2022-07-29T10:17:58;6.00;84.90
59973;DHT22;55298;-36.624;-64.282;2022-07-29T10:20:27;6.00;85.90
59973;DHT22;55298;-36.624;-64.282;2022-07-29T10:22:57;6.20;83.40
59973;DHT22;55298;-36.624;-64.282;2022-07-29T10:25:26;6.10;81.60
59973;DHT22;55298;-36.624;-64.282;2022-07-29T10:27:55;6.30;79.80
59973;DHT22;55298;-36.624;-64.282;2022-07-29T10:30:25;6.50;77.80
59973;DHT22;55298;-36.624;-64.282;2022-07-29T10:42:00;6.70;76.70
59973;DHT22;55298;-36.624;-64.282;2022-07-29T10:44:33;6.60;77.80
59973;DHT22;55298;-36.624;-64.282;2022-07-29T10:47:03;6.50;78.30
59973;DHT22;55298;-36.624;-64.282;2022-07-29T10:49:32;6.50;78.60
59973;DHT22;55298;-36.624;-64.282;2022-07-29T10:52:06;6.00;79.10
59973;DHT22;55298;-36.624;-64.282;2022-07-29T10:54:37;6.30;80.00
59973;DHT22;55298;-36.624;-64.282;2022-07-29T10:57:27;6.30;80.70
59973;DHT22;55298;-36.624;-64.282;2022-07-29T11:00:30;6.30;79.10
59973;DHT22;55298;-36.624;-64.282;2022-07-29T11:03:00;6.20;80.00
59973;DHT22;55298;-36.624;-64.282;2022-07-29T11:05:51;6.10;80.60
59973;DHT22;55298;-36.624;-64.282;2022-07-29T11:08:22;6.10;80.60
59973;DHT22;55298;-36.624;-64.282;2022-07-29T11:10:53;5.90;81.50
59973;DHT22;55298;-36.624;-64.282;2022-07-29T11:13:46;5.80;82.40
59973;DHT22;55298;-36.624;-64.282;2022-07-29T11:16:18;5.70;83.20
59973;DHT22;55298;-36.624;-64.282;2022-07-29T11:19:18;5.60;83.80
59973;DHT22;55298;-36.624;-64.282;2022-07-29T11:21:48;5.70;83.50
59973;DHT22;55298;-36.624;-64.282;2022-07-29T11:24:28;5.60;82.70
59973;DHT22;55298;-36.624;-64.282;2022-07-29T11:27:16;5.70;83.10
59973;DHT22;55298;-36.624;-64.282;2022-07-29T11:29:52;5.70;83.20
59973;DHT22;55298;-36.624;-64.282;2022-07-29T11:32:22;5.80;82.80
59973;DHT22;55298;-36.624;-64.282;2022-07-29T11:35:13;5.80;83.00
59973;DHT22;55298;-36.624;-64.282;2022-07-29T11:37:42;6.00;81.50
59973;DHT22;55298;-36.624;-64.282;2022-07-29T11:40:13;6.00;79.70
59973;DHT22;55298;-36.624;-64.282;2022-07-29T11:42:43;6.10;79.40
59973;DHT22;55298;-36.624;-64.282;2022-07-29T11:45:20;6.20;78.30
59973;DHT22;55298;-36.624;-64.282;2022-07-29T11:47:53;6.20;79.10
59973;DHT22;55298;-36.624;-64.282;2022-07-29T11:50:37;7.00;75.10
59973;DHT22;55298;-36.624;-64.282;2022-07-29T11:53:14;7.40;70.00
59973;DHT22;55298;-36.624;-64.282;2022-07-29T11:55:43;7.60;68.60
59973;DHT22;55298;-36.624;-64.282;2022-07-29T11:58:12;7.60;69.90
59973;DHT22;55298;-36.624;-64.282;2022-07-29T12:00:41;7.90;66.00
59973;DHT22;55298;-36.624;-64.282;2022-07-29T12:03:25;8.30;62.60
59973;DHT22;55298;-36.624;-64.282;2022-07-29T12:05:54;8.40;62.00
59973;DHT22;55298;-36.624;-64.282;2022-07-29T12:08:23;8.60;60.20
59973;DHT22;55298;-36.624;-64.282;2022-07-29T12:10:53;8.70;60.80
59973;DHT22;55298;-36.624;-64.282;2022-07-29T12:13:22;8.90;58.90
59973;DHT22;55298;-36.624;-64.282;2022-07-29T12:15:56;9.00;57.90
59973;DHT22;55298;-36.624;-64.282;2022-07-29T12:18:25;9.20;56.70
59973;DHT22;55298;-36.624;-64.282;2022-07-29T12:21:00;9.30;56.50
59973;DHT22;55298;-36.624;-64.282;2022-07-29T12:23:32;9.30;57.00
59973;DHT22;55298;-36.624;-64.282;2022-07-29T12:26:03;9.50;55.60
59973;DHT22;55298;-36.624;-64.282;2022-07-29T12:28:37;9.50;56.10
59973;DHT22;55298;-36.624;-64.282;2022-07-29T12:31:12;9.70;55.60
59973;DHT22;55298;-36.624;-64.282;2022-07-29T12:33:42;9.80;54.50
59973;DHT22;55298;-36.624;-64.282;2022-07-29T12:36:11;9.90;54.60
59973;DHT22;55298;-36.624;-64.282;2022-07-29T12:38:41;9.70;54.80
59973;DHT22;55298;-36.624;-64.282;2022-07-29T12:41:11;9.90;55.00
59973;DHT22;55298;-36.624;-64.282;2022-07-29T12:43:52;9.90;55.10
59973;DHT22;55298;-36.624;-64.282;2022-07-29T12:46:22;10.20;54.80
59973;DHT22;55298;-36.624;-64.282;2022-07-29T12:48:55;10.20;54.30
59973;DHT22;55298;-36.624;-64.282;2022-07-29T12:51:35;10.40;54.10
59973;DHT22;55298;-36.624;-64.282;2022-07-29T12:54:07;10.40;54.60
59973;DHT22;55298;-36.624;-64.282;2022-07-29T12:56:38;10.50;54.40
59973;DHT22;55298;-36.624;-64.282;2022-07-29T12:59:16;10.80;54.30
59973;DHT22;55298;-36.624;-64.282;2022-07-29T13:01:46;10.70;54.60
59973;DHT22;55298;-36.624;-64.282;2022-07-29T13:04:28;10.90;54.50
59973;DHT22;55298;-36.624;-64.282;2022-07-29T13:07:02;10.90;54.90
59973;DHT22;55298;-36.624;-64.282;2022-07-29T13:09:47;11.10;54.20
59973;DHT22;55298;-36.624;-64.282;2022-07-29T13:12:16;11.10;54.00
59973;DHT22;55298;-36.624;-64.282;2022-07-29T13:14:47;11.20;54.50
59973;DHT22;55298;-36.624;-64.282;2022-07-29T13:17:19;11.70;52.70
59973;DHT22;55298;-36.624;-64.282;2022-07-29T13:19:51;11.70;53.10
59973;DHT22;55298;-36.624;-64.282;2022-07-29T13:22:22;11.80;52.80
59973;DHT22;55298;-36.624;-64.282;2022-07-29T13:24:55;11.80;53.20
59973;DHT22;55298;-36.624;-64.282;2022-07-29T13:27:26;11.80;53.10
59973;DHT22;55298;-36.624;-64.282;2022-07-29T13:29:57;11.80;53.50
59973;DHT22;55298;-36.624;-64.282;2022-07-29T13:32:28;11.90;53.20
59973;DHT22;55298;-36.624;-64.282;2022-07-29T13:35:01;12.20;51.00
59973;DHT22;55298;-36.624;-64.282;2022-07-29T13:37:31;12.20;51.60
59973;DHT22;55298;-36.624;-64.282;2022-07-29T13:40:02;12.50;51.90
59973;DHT22;55298;-36.624;-64.282;2022-07-29T13:42:32;12.90;49.70
59973;DHT22;55298;-36.624;-64.282;2022-07-29T13:45:04;12.80;49.00
59973;DHT22;55298;-36.624;-64.282;2022-07-29T13:47:33;12.90;49.70
59973;DHT22;55298;-36.624;-64.282;2022-07-29T13:50:06;13.30;49.20
59973;DHT22;55298;-36.624;-64.282;2022-07-29T13:52:37;13.40;48.40
59973;DHT22;55298;-36.624;-64.282;2022-07-29T13:55:06;13.40;48.00
59973;DHT22;55298;-36.624;-64.282;2022-07-29T13:57:35;13.50;48.10
59973;DHT22;55298;-36.624;-64.282;2022-07-29T14:00:04;13.60;47.60
59973;DHT22;55298;-36.624;-64.282;2022-07-29T14:02:33;13.80;47.10
59973;DHT22;55298;-36.624;-64.282;2022-07-29T14:05:02;14.00;46.70
59973;DHT22;55298;-36.624;-64.282;2022-07-29T14:07:30;14.30;45.70
59973;DHT22;55298;-36.624;-64.282;2022-07-29T14:09:59;14.40;45.10
59973;DHT22;55298;-36.624;-64.282;2022-07-29T14:12:28;14.50;44.80
59973;DHT22;55298;-36.624;-64.282;2022-07-29T14:15:11;14.20;44.50
59973;DHT22;55298;-36.624;-64.282;2022-07-29T14:17:39;14.10;45.20
59973;DHT22;55298;-36.624;-64.282;2022-07-29T14:20:09;14.10;45.80
59973;DHT22;55298;-36.624;-64.282;2022-07-29T14:22:38;14.60;44.70
59973;DHT22;55298;-36.624;-64.282;2022-07-29T14:25:09;14.90;44.20
59973;DHT22;55298;-36.624;-64.282;2022-07-29T14:27:38;15.00;43.60
59973;DHT22;55298;-36.624;-64.282;2022-07-29T14:30:07;14.90;44.10
59973;DHT22;55298;-36.624;-64.282;2022-07-29T14:32:36;14.90;44.70
59973;DHT22;55298;-36.624;-64.282;2022-07-29T14:35:07;15.30;42.90
59973;DHT22;55298;-36.624;-64.282;2022-07-29T14:37:35;15.30;41.90
59973;DHT22;55298;-36.624;-64.282;2022-07-29T14:40:05;15.60;42.30
59973;DHT22;55298;-36.624;-64.282;2022-07-29T14:42:34;15.90;41.40
59973;DHT22;55298;-36.624;-64.282;2022-07-29T14:45:05;15.90;41.80
59973;DHT22;55298;-36.624;-64.282;2022-07-29T14:47:34;16.00;42.10
59973;DHT22;55298;-36.624;-64.282;2022-07-29T14:50:04;16.00;42.30
59973;DHT22;55298;-36.624;-64.282;2022-07-29T14:52:33;16.00;42.80
59973;DHT22;55298;-36.624;-64.282;2022-07-29T14:55:03;16.00;42.60
59973;DHT22;55298;-36.624;-64.282;2022-07-29T14:57:32;16.10;43.30
59973;DHT22;55298;-36.624;-64.282;2022-07-29T15:00:03;15.80;42.60
59973;DHT22;55298;-36.624;-64.282;2022-07-29T15:02:34;15.50;44.00
59973;DHT22;55298;-36.624;-64.282;2022-07-29T15:05:02;15.50;44.30
59973;DHT22;55298;-36.624;-64.282;2022-07-29T15:07:32;15.20;44.70
59973;DHT22;55298;-36.624;-64.282;2022-07-29T15:10:00;15.00;45.20
59973;DHT22;55298;-36.624;-64.282;2022-07-29T15:12:31;15.30;45.70
59973;DHT22;55298;-36.624;-64.282;2022-07-29T15:18:40;15.00;45.30
59973;DHT22;55298;-36.624;-64.282;2022-07-29T15:21:10;15.10;45.80
59973;DHT22;55298;-36.624;-64.282;2022-07-29T15:23:40;15.10;46.10
59973;DHT22;55298;-36.624;-64.282;2022-07-29T15:26:10;15.10;46.70
59973;DHT22;55298;-36.624;-64.282;2022-07-29T15:28:39;15.40;46.10
59973;DHT22;55298;-36.624;-64.282;2022-07-29T15:31:07;15.60;45.40
59973;DHT22;55298;-36.624;-64.282;2022-07-29T15:33:36;15.70;45.40
59973;DHT22;55298;-36.624;-64.282;2022-07-29T15:36:04;16.00;45.20
59973;DHT22;55298;-36.624;-64.282;2022-07-29T15:38:33;16.20;44.50
59973;DHT22;55298;-36.624;-64.282;2022-07-29T15:41:01;16.50;43.60
59973;DHT22;55298;-36.624;-64.282;2022-07-29T15:43:30;16.60;43.40
59973;DHT22;55298;-36.624;-64.282;2022-07-29T15:45:58;16.90;42.80
59973;DHT22;55298;-36.624;-64.282;2022-07-29T15:48:44;17.20;41.20